sensor_id;sensor_type;location;lat;lon;timestamp;pressure;altitude;pressure_sealevel;temperature;humidity
62976;BME280;49071;0.000;0.000;2023-04-23T05:44:08;100070.75;;;20.14;39.33
62976;BME280;49071;0.000;0.000;2023-04-23T05:47:09;100063.63;;;20.16;39.30
62976;BME280;49071;0.000;0.000;2023-04-23T05:50:10;100073.16;;;19.63;40.39
62976;BME280;49071;0.000;0.000;2023-04-23T05:53:10;100078.44;;;19.49;41.02
62976;BME280;49071;0.000;0.000;2023-04-23T05:56:10;100075.34;;;19.28;41.52
62976;BME280;49071;0.000;0.000;2023-04-23T05:59:11;100076.75;;;19.33;41.14
62976;BME280;49071;0.000;0.000;2023-04-23T06:02:11;100078.34;;;19.36;41.18
62976;BME280;49071;0.000;0.000;2023-04-23T06:05:11;100076.81;;;20.56;38.79
62976;BME280;49071;0.000;0.000;2023-04-23T06:08:11;100080.56;;;20.12;39.81
62976;BME280;49071;0.000;0.000;2023-04-23T06:11:11;100067.47;;;20.11;39.72
62976;BME280;49071;0.000;0.000;2023-04-23T06:14:11;100074.59;;;20.23;39.22
62976;BME280;49071;0.000;0.000;2023-04-23T06:17:12;100059.19;;;19.90;39.62
62976;BME280;49071;0.000;0.000;2023-04-23T06:20:12;100057.88;;;19.27;41.22
62976;BME280;49071;0.000;0.000;2023-04-23T06:23:12;100056.50;;;19.07;41.55
62976;BME280;49071;0.000;0.000;2023-04-23T06:26:12;100060.13;;;19.19;41.44
62976;BME280;49071;0.000;0.000;2023-04-23T06:29:13;100050.75;;;19.00;41.75
62976;BME280;49071;0.000;0.000;2023-04-23T06:32:13;100054.41;;;18.83;42.50
62976;BME280;49071;0.000;0.000;2023-04-23T06:35:13;100043.59;;;18.74;42.55
62976;BME280;49071;0.000;0.000;2023-04-23T06:38:13;100052.66;;;18.68;42.77
62976;BME280;49071;0.000;0.000;2023-04-23T06:41:13;100058.00;;;18.67;42.73
62976;BME280;49071;0.000;0.000;2023-04-23T06:44:14;100057.34;;;18.63;42.79
62976;BME280;49071;0.000;0.000;2023-04-23T06:47:14;100052.19;;;18.61;42.73
62976;BME280;49071;0.000;0.000;2023-04-23T06:50:14;100050.75;;;18.56;43.19
62976;BME280;49071;0.000;0.000;2023-04-23T06:53:15;100056.22;;;18.53;43.15
62976;BME280;49071;0.000;0.000;2023-04-23T06:56:15;100047.63;;;18.49;43.49
62976;BME280;49071;0.000;0.000;2023-04-23T06:59:15;100051.13;;;18.50;43.71
62976;BME280;49071;0.000;0.000;2023-04-23T07:02:15;100048.31;;;18.53;43.30
62976;BME280;49071;0.000;0.000;2023-04-23T07:05:16;100046.16;;;18.59;42.90
62976;BME280;49071;0.000;0.000;2023-04-23T07:08:16;100042.06;;;18.70;42.88
62976;BME280;49071;0.000;0.000;2023-04-23T07:11:16;100035.38;;;18.80;42.81
62976;BME280;49071;0.000;0.000;2023-04-23T07:14:17;100034.59;;;19.06;42.34
62976;BME280;49071;0.000;0.000;2023-04-23T07:17:17;100043.88;;;19.26;42.06
62976;BME280;49071;0.000;0.000;2023-04-23T07:20:17;100038.25;;;19.32;42.33
62976;BME280;49071;0.000;0.000;2023-04-23T07:23:17;100026.66;;;19.49;42.32
62976;BME280;49071;0.000;0.000;2023-04-23T07:26:17;100036.34;;;19.49;42.20
62976;BME280;49071;0.000;0.000;2023-04-23T07:29:18;100046.22;;;19.45;42.22
62976;BME280;49071;0.000;0.000;2023-04-23T07:32:18;100035.41;;;19.64;42.17
62976;BME280;49071;0.000;0.000;2023-04-23T07:35:18;100041.78;;;19.74;41.93
62976;BME280;49071;0.000;0.000;2023-04-23T07:38:18;100041.78;;;19.74;41.48
62976;BME280;49071;0.000;0.000;2023-04-23T07:41:18;100043.66;;;19.72;42.09
62976;BME280;49071;0.000;0.000;2023-04-23T07:44:19;100039.63;;;19.67;42.02
62976;BME280;49071;0.000;0.000;2023-04-23T07:47:19;100045.06;;;19.64;42.22
62976;BME280;49071;0.000;0.000;2023-04-23T07:50:19;100046.09;;;19.61;42.37
62976;BME280;49071;0.000;0.000;2023-04-23T07:53:20;100056.06;;;19.56;42.08
62976;BME280;49071;0.000;0.000;2023-04-23T07:56:20;100054.47;;;19.53;42.29
62976;BME280;49071;0.000;0.000;2023-04-23T07:59:21;100052.88;;;19.51;42.55
62976;BME280;49071;0.000;0.000;2023-04-23T08:02:21;100042.56;;;19.48;42.40
62976;BME280;49071;0.000;0.000;2023-04-23T08:05:25;100047.25;;;19.43;42.52
62976;BME280;49071;0.000;0.000;2023-04-23T08:08:25;100047.53;;;19.38;42.72
62976;BME280;49071;0.000;0.000;2023-04-23T08:11:26;100050.44;;;19.33;42.78
62976;BME280;49071;0.000;0.000;2023-04-23T08:14:28;100054.31;;;19.28;42.87
62976;BME280;49071;0.000;0.000;2023-04-23T08:17:28;100053.66;;;19.24;43.10
62976;BME280;49071;0.000;0.000;2023-04-23T08:20:28;100059.94;;;19.22;43.27
62976;BME280;49071;0.000;0.000;2023-04-23T08:23:29;100053.94;;;19.20;42.99
62976;BME280;49071;0.000;0.000;2023-04-23T08:26:29;100052.16;;;19.20;43.27
62976;BME280;49071;0.000;0.000;2023-04-23T08:29:30;100053.00;;;19.21;43.55
62976;BME280;49071;0.000;0.000;2023-04-23T08:32:30;100061.81;;;19.20;43.24
62976;BME280;49071;0.000;0.000;2023-04-23T08:35:30;100058.53;;;19.16;43.53
62976;BME280;49071;0.000;0.000;2023-04-23T08:38:30;100067.56;;;19.12;43.32
62976;BME280;49071;0.000;0.000;2023-04-23T08:41:37;100068.69;;;19.08;43.64
62976;BME280;49071;0.000;0.000;2023-04-23T08:44:40;100064.47;;;19.05;43.61
62976;BME280;49071;0.000;0.000;2023-04-23T08:47:41;100072.44;;;19.04;43.38
62976;BME280;49071;0.000;0.000;2023-04-23T08:50:42;100074.41;;;19.00;43.40
62976;BME280;49071;0.000;0.000;2023-04-23T08:53:43;100075.44;;;18.98;43.65
62976;BME280;49071;0.000;0.000;2023-04-23T08:56:44;100077.22;;;18.97;43.83
62976;BME280;49071;0.000;0.000;2023-04-23T08:59:45;100090.38;;;18.97;43.81
62976;BME280;49071;0.000;0.000;2023-04-23T09:02:46;100085.97;;;18.98;43.74
62976;BME280;49071;0.000;0.000;2023-04-23T09:05:47;100093.84;;;18.98;44.00
62976;BME280;49071;0.000;0.000;2023-04-23T09:08:47;100100.03;;;18.97;43.71
62976;BME280;49071;0.000;0.000;2023-04-23T09:11:48;100099.28;;;18.95;43.95
62976;BME280;49071;0.000;0.000;2023-04-23T09:14:48;100098.63;;;18.91;44.03
62976;BME280;49071;0.000;0.000;2023-04-23T09:17:49;100101.31;;;18.90;44.12
62976;BME280;49071;0.000;0.000;2023-04-23T09:20:50;100104.88;;;18.88;44.22
62976;BME280;49071;0.000;0.000;2023-04-23T09:23:51;100100.75;;;18.84;44.17
62976;BME280;49071;0.000;0.000;2023-04-23T09:26:51;100110.50;;;18.82;44.12
62976;BME280;49071;0.000;0.000;2023-04-23T09:29:51;100109.78;;;18.80;44.25
62976;BME280;49071;0.000;0.000;2023-04-23T09:32:56;100112.47;;;18.79;44.25
62976;BME280;49071;0.000;0.000;2023-04-23T09:35:56;100115.28;;;18.76;44.23
62976;BME280;49071;0.000;0.000;2023-04-23T09:38:57;100116.13;;;18.76;44.25
62976;BME280;49071;0.000;0.000;2023-04-23T09:42:01;100119.69;;;18.75;44.35
62976;BME280;49071;0.000;0.000;2023-04-23T09:45:03;100115.28;;;18.76;44.38
62976;BME280;49071;0.000;0.000;2023-04-23T09:48:03;100121.38;;;18.76;44.50
62976;BME280;49071;0.000;0.000;2023-04-23T09:51:03;100110.13;;;18.74;44.65
62976;BME280;49071;0.000;0.000;2023-04-23T09:54:06;100113.69;;;18.73;44.49
62976;BME280;49071;0.000;0.000;2023-04-23T09:57:09;100118.16;;;18.71;44.45
62976;BME280;49071;0.000;0.000;2023-04-23T10:00:11;100123.50;;;18.70;44.56
62976;BME280;49071;0.000;0.000;2023-04-23T10:03:12;100115.81;;;18.67;44.64
62976;BME280;49071;0.000;0.000;2023-04-23T10:06:12;100115.31;;;18.60;44.61
62976;BME280;49071;0.000;0.000;2023-04-23T10:09:14;100115.31;;;18.60;44.63
62976;BME280;49071;0.000;0.000;2023-04-23T10:12:14;100110.06;;;18.60;44.57
62976;BME280;49071;0.000;0.000;2023-04-23T10:15:16;100117.94;;;18.60;44.72
62976;BME280;49071;0.000;0.000;2023-04-23T10:18:16;100110.91;;;18.60;44.68
62976;BME280;49071;0.000;0.000;2023-04-23T10:21:18;100108.34;;;18.59;44.73
62976;BME280;49071;0.000;0.000;2023-04-23T10:24:18;100103.09;;;18.59;44.63
62976;BME280;49071;0.000;0.000;2023-04-23T10:27:20;100102.34;;;18.57;44.90
62976;BME280;49071;0.000;0.000;2023-04-23T10:30:21;100105.00;;;18.57;44.82
62976;BME280;49071;0.000;0.000;2023-04-23T10:33:21;100101.41;;;18.58;44.63
62976;BME280;49071;0.000;0.000;2023-04-23T10:36:23;100094.03;;;18.64;44.57
62976;BME280;49071;0.000;0.000;2023-04-23T10:39:25;100094.50;;;18.71;44.43
62976;BME280;49071;0.000;0.000;2023-04-23T10:42:26;100089.50;;;18.82;44.15
62976;BME280;49071;0.000;0.000;2023-04-23T10:45:29;100090.44;;;18.96;44.16
62976;BME280;49071;0.000;0.000;2023-04-23T10:48:48;100092.16;;;19.11;43.67
62976;BME280;49071;0.000;0.000;2023-04-23T10:51:59;100103.44;;;19.27;43.44
62976;BME280;49071;0.000;0.000;2023-04-23T10:55:00;100096.50;;;19.41;43.53
62976;BME280;49071;0.000;0.000;2023-04-23T10:58:03;100096.72;;;19.50;43.43
62976;BME280;49071;0.000;0.000;2023-04-23T11:01:03;100102.69;;;19.68;43.71
62976;BME280;49071;0.000;0.000;2023-04-23T11:04:23;100091.28;;;19.82;44.94
62976;BME280;49071;0.000;0.000;2023-04-23T11:07:30;100092.06;;;19.97;44.83
62976;BME280;49071;0.000;0.000;2023-04-23T11:10:30;100096.00;;;20.04;45.06
62976;BME280;49071;0.000;0.000;2023-04-23T11:13:31;100103.50;;;20.10;44.38
62976;BME280;49071;0.000;0.000;2023-04-23T11:16:31;100088.66;;;20.09;44.78
62976;BME280;49071;0.000;0.000;2023-04-23T11:19:34;100098.16;;;20.12;44.48
62976;BME280;49071;0.000;0.000;2023-04-23T11:22:35;100084.03;;;20.13;44.66
62976;BME280;49071;0.000;0.000;2023-04-23T11:25:36;100084.75;;;20.02;44.72
62976;BME280;49071;0.000;0.000;2023-04-23T11:28:37;100093.34;;;19.91;44.59
62976;BME280;49071;0.000;0.000;2023-04-23T11:31:38;100085.81;;;19.85;45.17
62976;BME280;49071;0.000;0.000;2023-04-23T11:34:39;100091.53;;;19.92;44.98
62976;BME280;49071;0.000;0.000;2023-04-23T11:37:41;100084.56;;;19.91;45.15
62976;BME280;49071;0.000;0.000;2023-04-23T11:40:44;100083.53;;;19.93;45.07
62976;BME280;49071;0.000;0.000;2023-04-23T11:43:45;100081.53;;;19.97;45.08
62976;BME280;49071;0.000;0.000;2023-04-23T11:46:48;100082.19;;;20.00;45.39
62976;BME280;49071;0.000;0.000;2023-04-23T11:49:49;100076.94;;;20.00;45.62
62976;BME280;49071;0.000;0.000;2023-04-23T11:52:49;100071.66;;;20.00;45.87
62976;BME280;49071;0.000;0.000;2023-04-23T11:55:52;100083.16;;;19.99;45.65
62976;BME280;49071;0.000;0.000;2023-04-23T11:58:59;100078.41;;;20.04;46.30
62976;BME280;49071;0.000;0.000;2023-04-23T12:02:02;100072.09;;;20.07;46.38
62976;BME280;49071;0.000;0.000;2023-04-23T12:05:05;100081.28;;;20.01;46.63
62976;BME280;49071;0.000;0.000;2023-04-23T12:08:19;100092.25;;;20.08;47.06
62976;BME280;49071;0.000;0.000;2023-04-23T12:11:20;100106.50;;;20.18;47.21
62976;BME280;49071;0.000;0.000;2023-04-23T12:14:27;100107.22;;;20.20;47.55
62976;BME280;49071;0.000;0.000;2023-04-23T12:17:27;100110.50;;;20.24;48.00
62976;BME280;49071;0.000;0.000;2023-04-23T12:20:27;100110.13;;;20.30;47.88
62976;BME280;49071;0.000;0.000;2023-04-23T12:23:29;100110.22;;;20.28;47.68
62976;BME280;49071;0.000;0.000;2023-04-23T12:26:29;100113.13;;;20.24;48.11
62976;BME280;49071;0.000;0.000;2023-04-23T12:29:30;100120.19;;;20.23;47.57
62976;BME280;49071;0.000;0.000;2023-04-23T12:32:31;100115.31;;;20.17;47.37
62976;BME280;49071;0.000;0.000;2023-04-23T12:35:42;100120.78;;;20.14;47.80
62976;BME280;49071;0.000;0.000;2023-04-23T12:38:42;100121.63;;;20.15;47.65
62976;BME280;49071;0.000;0.000;2023-04-23T12:41:42;100117.22;;;20.15;47.46
62976;BME280;49071;0.000;0.000;2023-04-23T12:44:42;100121.75;;;20.13;47.69
62976;BME280;49071;0.000;0.000;2023-04-23T12:47:43;100118.34;;;20.11;47.31
62976;BME280;49071;0.000;0.000;2023-04-23T12:50:44;100113.31;;;20.08;47.26
62976;BME280;49071;0.000;0.000;2023-04-23T12:53:44;100117.31;;;20.14;47.24
62976;BME280;49071;0.000;0.000;2023-04-23T12:56:45;100107.22;;;20.20;47.88
62976;BME280;49071;0.000;0.000;2023-04-23T12:59:45;100113.97;;;20.24;47.54
62976;BME280;49071;0.000;0.000;2023-04-23T13:02:45;100118.31;;;20.25;48.05
62976;BME280;49071;0.000;0.000;2023-04-23T13:05:46;100118.00;;;20.30;48.12
62976;BME280;49071;0.000;0.000;2023-04-23T13:08:47;100109.59;;;20.38;48.77
62976;BME280;49071;0.000;0.000;2023-04-23T13:11:47;100107.91;;;20.37;48.40
62976;BME280;49071;0.000;0.000;2023-04-23T13:14:48;100122.53;;;20.28;48.64
62976;BME280;49071;0.000;0.000;2023-04-23T13:17:48;100115.25;;;20.19;48.71
62976;BME280;49071;0.000;0.000;2023-04-23T13:20:49;100115.06;;;20.08;48.75
62976;BME280;49071;0.000;0.000;2023-04-23T13:23:49;100115.75;;;19.97;48.72
62976;BME280;49071;0.000;0.000;2023-04-23T13:26:49;100116.25;;;19.89;48.49
62976;BME280;49071;0.000;0.000;2023-04-23T13:29:50;100113.19;;;19.83;48.23
62976;BME280;49071;0.000;0.000;2023-04-23T13:32:50;100114.31;;;19.78;48.26
62976;BME280;49071;0.000;0.000;2023-04-23T13:35:50;100107.56;;;19.74;48.20
62976;BME280;49071;0.000;0.000;2023-04-23T13:38:50;100108.59;;;19.72;48.17
62976;BME280;49071;0.000;0.000;2023-04-23T13:41:50;100103.53;;;19.69;48.17
62976;BME280;49071;0.000;0.000;2023-04-23T13:44:51;100095.81;;;19.66;48.12
62976;BME280;49071;0.000;0.000;2023-04-23T13:47:52;100089.88;;;19.62;48.34
62976;BME280;49071;0.000;0.000;2023-04-23T13:50:52;100089.13;;;19.60;48.04
62976;BME280;49071;0.000;0.000;2023-04-23T13:53:52;100092.69;;;19.59;48.23
62976;BME280;49071;0.000;0.000;2023-04-23T13:56:55;100091.00;;;19.58;47.95
62976;BME280;49071;0.000;0.000;2023-04-23T13:59:56;100087.63;;;19.56;47.83
62976;BME280;49071;0.000;0.000;2023-04-23T14:02:56;100091.22;;;19.55;47.88
62976;BME280;49071;0.000;0.000;2023-04-23T14:05:56;100091.41;;;19.52;47.96
62976;BME280;49071;0.000;0.000;2023-04-23T14:08:57;100095.06;;;19.49;48.14
62976;BME280;49071;0.000;0.000;2023-04-23T14:11:57;100086.31;;;19.49;48.06
62976;BME280;49071;0.000;0.000;2023-04-23T14:14:58;100089.06;;;19.47;48.00
62976;BME280;49071;0.000;0.000;2023-04-23T14:17:58;100088.19;;;19.47;47.96
62976;BME280;49071;0.000;0.000;2023-04-23T14:20:58;100088.31;;;19.45;47.93
62976;BME280;49071;0.000;0.000;2023-04-23T14:24:00;100088.38;;;19.44;47.70
62976;BME280;49071;0.000;0.000;2023-04-23T14:27:01;100085.03;;;19.42;47.81
62976;BME280;49071;0.000;0.000;2023-04-23T14:30:02;100089.50;;;19.40;47.81
62976;BME280;49071;0.000;0.000;2023-04-23T14:33:05;100080.91;;;19.38;47.76
62976;BME280;49071;0.000;0.000;2023-04-23T14:36:06;100084.56;;;19.35;47.94
62976;BME280;49071;0.000;0.000;2023-04-23T14:39:06;100081.09;;;19.34;47.87
62976;BME280;49071;0.000;0.000;2023-04-23T14:42:07;100083.78;;;19.33;48.06
62976;BME280;49071;0.000;0.000;2023-04-23T14:45:08;100081.16;;;19.33;47.99
62976;BME280;49071;0.000;0.000;2023-04-23T14:48:08;100072.53;;;19.31;47.89
62976;BME280;49071;0.000;0.000;2023-04-23T14:51:08;100082.22;;;19.30;48.00
62976;BME280;49071;0.000;0.000;2023-04-23T14:54:09;100073.56;;;19.28;48.18
62976;BME280;49071;0.000;0.000;2023-04-23T14:57:09;100073.66;;;19.27;47.85
62976;BME280;49071;0.000;0.000;2023-04-23T15:00:10;100072.06;;;19.24;47.75
62976;BME280;49071;0.000;0.000;2023-04-23T15:03:12;100070.47;;;19.22;47.87
62976;BME280;49071;0.000;0.000;2023-04-23T15:06:12;100069.63;;;19.21;47.88
62976;BME280;49071;0.000;0.000;2023-04-23T15:09:12;100067.91;;;19.20;47.95
62976;BME280;49071;0.000;0.000;2023-04-23T15:12:33;100068.78;;;19.21;47.80
62976;BME280;49071;0.000;0.000;2023-04-23T15:15:36;100068.03;;;19.19;47.92
62976;BME280;49071;0.000;0.000;2023-04-23T15:18:37;100060.13;;;19.19;47.89
62976;BME280;49071;0.000;0.000;2023-04-23T15:21:37;100052.34;;;19.17;48.03
62976;BME280;49071;0.000;0.000;2023-04-23T15:24:38;100052.34;;;19.17;47.82
62976;BME280;49071;0.000;0.000;2023-04-23T15:27:38;100055.06;;;19.16;47.63
62976;BME280;49071;0.000;0.000;2023-04-23T15:30:38;100050.75;;;19.15;47.93
62976;BME280;49071;0.000;0.000;2023-04-23T15:33:39;100042.09;;;19.13;47.64
62976;BME280;49071;0.000;0.000;2023-04-23T15:36:40;100043.91;;;19.12;47.99
62976;BME280;49071;0.000;0.000;2023-04-23T15:39:40;100049.16;;;19.12;48.03
62976;BME280;49071;0.000;0.000;2023-04-23T15:42:40;100037.88;;;19.10;47.93
62976;BME280;49071;0.000;0.000;2023-04-23T15:45:40;100046.72;;;19.09;47.91
62976;BME280;49071;0.000;0.000;2023-04-23T15:48:41;100037.97;;;19.08;48.08
62976;BME280;49071;0.000;0.000;2023-04-23T15:51:42;100039.84;;;19.06;47.71
62976;BME280;49071;0.000;0.000;2023-04-23T15:54:43;100034.59;;;19.06;47.94
62976;BME280;49071;0.000;0.000;2023-04-23T15:57:43;100035.53;;;19.05;47.69
62976;BME280;49071;0.000;0.000;2023-04-23T16:00:43;100031.22;;;19.04;48.06
62976;BME280;49071;0.000;0.000;2023-04-23T16:03:44;100019.88;;;19.04;47.78
62976;BME280;49071;0.000;0.000;2023-04-23T16:06:44;100020.78;;;19.03;47.86
62976;BME280;49071;0.000;0.000;2023-04-23T16:09:44;100016.50;;;19.02;47.79
62976;BME280;49071;0.000;0.000;2023-04-23T16:12:44;100006.94;;;19.01;47.78
62976;BME280;49071;0.000;0.000;2023-04-23T16:15:46;100005.22;;;19.00;47.73
62976;BME280;49071;0.000;0.000;2023-04-23T16:18:46;100005.22;;;19.00;48.00
62976;BME280;49071;0.000;0.000;2023-04-23T16:21:47;100006.16;;;18.99;47.83
62976;BME280;49071;0.000;0.000;2023-04-23T16:24:47;100005.31;;;18.98;47.84
62976;BME280;49071;0.000;0.000;2023-04-23T16:27:47;100002.81;;;18.97;47.85
62976;BME280;49071;0.000;0.000;2023-04-23T16:30:48;100001.94;;;18.96;47.72
62976;BME280;49071;0.000;0.000;2023-04-23T16:33:48;100003.66;;;18.97;47.77
62976;BME280;49071;0.000;0.000;2023-04-23T16:36:48;99998.38;;;18.97;47.67
62976;BME280;49071;0.000;0.000;2023-04-23T16:39:48;99994.16;;;18.95;47.92
62976;BME280;49071;0.000;0.000;2023-04-23T16:42:48;100002.03;;;18.95;47.87
62976;BME280;49071;0.000;0.000;2023-04-23T16:45:48;99995.09;;;18.94;47.88
62976;BME280;49071;0.000;0.000;2023-04-23T16:48:49;99996.03;;;18.93;47.93
62976;BME280;49071;0.000;0.000;2023-04-23T16:51:49;99993.41;;;18.93;47.66
62976;BME280;49071;0.000;0.000;2023-04-23T16:54:49;99996.97;;;18.92;47.98
62976;BME280;49071;0.000;0.000;2023-04-23T16:57:50;99990.03;;;18.91;47.72
62976;BME280;49071;0.000;0.000;2023-04-23T17:00:50;99994.34;;;18.92;47.97
62976;BME280;49071;0.000;0.000;2023-04-23T17:03:51;99990.94;;;18.90;47.67
62976;BME280;49071;0.000;0.000;2023-04-23T17:06:51;99993.69;;;18.88;47.63
62976;BME280;49071;0.000;0.000;2023-04-23T17:09:51;99988.44;;;18.88;47.85
62976;BME280;49071;0.000;0.000;2023-04-23T17:12:51;99983.25;;;18.86;47.69
62976;BME280;49071;0.000;0.000;2023-04-23T17:15:53;99974.53;;;18.86;47.92
62976;BME280;49071;0.000;0.000;2023-04-23T17:18:53;99972.84;;;18.85;47.68
62976;BME280;49071;0.000;0.000;2023-04-23T17:21:54;99971.19;;;18.84;48.02
62976;BME280;49071;0.000;0.000;2023-04-23T17:24:54;99971.19;;;18.84;47.82
62976;BME280;49071;0.000;0.000;2023-04-23T17:27:54;99966.84;;;18.83;47.97
62976;BME280;49071;0.000;0.000;2023-04-23T17:30:54;99955.59;;;18.81;47.80
62976;BME280;49071;0.000;0.000;2023-04-23T17:33:56;99959.06;;;18.81;47.79
62976;BME280;49071;0.000;0.000;2023-04-23T17:36:56;99960.00;;;18.80;47.92
62976;BME280;49071;0.000;0.000;2023-04-23T17:39:56;99960.84;;;18.81;47.61
62976;BME280;49071;0.000;0.000;2023-04-23T17:42:56;99965.06;;;18.83;47.77
62976;BME280;49071;0.000;0.000;2023-04-23T17:45:56;99955.41;;;18.84;47.96
62976;BME280;49071;0.000;0.000;2023-04-23T17:48:56;99955.22;;;18.87;47.98
62976;BME280;49071;0.000;0.000;2023-04-23T17:51:57;99952.59;;;18.87;47.92
62976;BME280;49071;0.000;0.000;2023-04-23T17:54:57;99960.56;;;18.85;48.30
62976;BME280;49071;0.000;0.000;2023-04-23T17:57:59;99954.34;;;18.86;48.35
62976;BME280;49071;0.000;0.000;2023-04-23T18:01:05;99954.94;;;18.92;48.42
62976;BME280;49071;0.000;0.000;2023-04-23T18:04:06;99948.84;;;18.91;48.10
62976;BME280;49071;0.000;0.000;2023-04-23T18:07:06;99953.31;;;18.89;48.18
62976;BME280;49071;0.000;0.000;2023-04-23T18:10:06;99951.66;;;18.88;48.07
62976;BME280;49071;0.000;0.000;2023-04-23T18:13:07;99954.34;;;18.86;47.96
62976;BME280;49071;0.000;0.000;2023-04-23T18:16:10;99954.47;;;18.85;48.41
62976;BME280;49071;0.000;0.000;2023-04-23T18:19:10;99964.03;;;18.86;48.46
62976;BME280;49071;0.000;0.000;2023-04-23T18:22:10;99961.50;;;18.84;48.28
62976;BME280;49071;0.000;0.000;2023-04-23T18:25:11;99969.28;;;18.86;48.49
62976;BME280;49071;0.000;0.000;2023-04-23T18:28:11;99963.84;;;18.89;48.34
62976;BME280;49071;0.000;0.000;2023-04-23T18:31:12;99969.94;;;18.90;48.47
62976;BME280;49071;0.000;0.000;2023-04-23T18:34:12;99971.53;;;18.92;48.59
62976;BME280;49071;0.000;0.000;2023-04-23T18:40:34;99983.47;;;18.98;48.80
62976;BME280;49071;0.000;0.000;2023-04-23T18:43:34;99980.06;;;18.96;48.80
62976;BME280;49071;0.000;0.000;2023-04-23T18:46:34;99982.63;;;18.97;48.60
62976;BME280;49071;0.000;0.000;2023-04-23T18:49:38;99977.25;;;18.99;48.60
62976;BME280;49071;0.000;0.000;2023-04-23T18:52:42;99979.03;;;18.98;49.03
62976;BME280;49071;0.000;0.000;2023-04-23T18:55:43;99990.50;;;18.97;48.69
62976;BME280;49071;0.000;0.000;2023-04-23T18:58:43;99983.53;;;18.96;49.02
62976;BME280;49071;0.000;0.000;2023-04-23T19:01:43;99981.03;;;18.95;48.95
62976;BME280;49071;0.000;0.000;2023-04-23T19:04:45;99980.19;;;18.94;48.98
62976;BME280;49071;0.000;0.000;2023-04-23T19:07:45;99981.09;;;18.93;48.78
62976;BME280;49071;0.000;0.000;2023-04-23T19:10:47;99980.25;;;18.93;48.78
62976;BME280;49071;0.000;0.000;2023-04-23T19:13:47;99980.25;;;18.93;48.83
62976;BME280;49071;0.000;0.000;2023-04-23T19:16:47;99982.69;;;18.96;49.04
62976;BME280;49071;0.000;0.000;2023-04-23T19:19:49;99983.47;;;18.98;48.96
62976;BME280;49071;0.000;0.000;2023-04-23T19:22:49;99983.47;;;18.98;48.82
62976;BME280;49071;0.000;0.000;2023-04-23T19:25:49;99970.13;;;19.01;48.82
62976;BME280;49071;0.000;0.000;2023-04-23T19:28:50;99977.06;;;19.02;48.92
62976;BME280;49071;0.000;0.000;2023-04-23T19:31:51;99974.53;;;19.00;49.00
62976;BME280;49071;0.000;0.000;2023-04-23T19:34:51;99979.81;;;19.00;49.17
62976;BME280;49071;0.000;0.000;2023-04-23T19:37:51;99978.84;;;19.01;49.34
62976;BME280;49071;0.000;0.000;2023-04-23T19:40:52;99968.34;;;19.01;49.25
62976;BME280;49071;0.000;0.000;2023-04-23T19:43:52;99972.56;;;19.04;49.45
62976;BME280;49071;0.000;0.000;2023-04-23T19:46:52;99966.44;;;19.03;49.35
62976;BME280;49071;0.000;0.000;2023-04-23T19:49:52;99966.44;;;19.03;49.72
62976;BME280;49071;0.000;0.000;2023-04-23T19:52:52;99973.31;;;19.06;49.66
62976;BME280;49071;0.000;0.000;2023-04-23T19:55:52;99973.31;;;19.06;48.72
62976;BME280;49071;0.000;0.000;2023-04-23T19:58:53;99973.41;;;19.04;48.78
62976;BME280;49071;0.000;0.000;2023-04-23T20:01:53;99962.91;;;19.04;49.30
62976;BME280;49071;0.000;0.000;2023-04-23T20:04:53;99967.22;;;19.05;48.93
